Decoded Metar for KGOV (GRAYLING AF in MI, USA) (IATA:GOV) | Meteo·Mobile Aviation Weather
aviador You're here:

KGOV Decoded Metar

GRAYLING AF in MI, USA
Report Time2019-03-23 15:58:00
UTC Time2019-03-23 16:23:16
Flight Rules vfr VFR
Wind290° at 08 kt
W.Decomp.*RWY 32: 7.3 kt HW 3.3 kt LCW
RWY 23: 3.3 kt HW 7.3 kt RCW
W.Rank290° ranks 6
Current wind is above 290° avg. (7.8)
Visibility9999 m
Phenomena:N/A
Clouds:N/A
Expected CloudBase > 3,200 ft AGL from Temp-Dew spread
CeilingNone
Temp-1°C (ISA -14)
Dew Point-9°C (55% RH)
AAT-6.9°C
QNH1024 hPa
Density Alt-843 ft
Elevation1,158 ft
Report Wrong Elevation
Raw Report
KGOV 231558Z AUTO 29008KT 10SM M M01/M09 A3024 RMK AO2 SLP263
T10061088 $=

Extra information for KGOV:More info

Metar Taf Metar & Taf Last 4 Metars F.Rules Stats Wind Profile Meteogram Temp Stats Airport Information Weather charts Add Link Nearby VenuesMetar ALERT Operation Metar Decoded Social comments

AIRNAV info for KGOV